createdAt,value
2017-06-24T00:00:35.838Z,0
2017-06-24T00:01:35.747Z,0
2017-06-24T00:02:35.905Z,0
2017-06-24T00:03:35.836Z,0
2017-06-24T00:04:35.796Z,0
2017-06-24T00:05:35.841Z,0
2017-06-24T00:06:35.845Z,0
2017-06-24T00:07:35.821Z,0
2017-06-24T00:08:35.821Z,0
2017-06-24T00:09:35.820Z,0
2017-06-24T00:10:35.830Z,0
2017-06-24T00:11:35.825Z,0
2017-06-24T00:12:35.824Z,0
2017-06-24T00:13:35.824Z,0
2017-06-24T00:14:35.823Z,0
2017-06-24T00:15:35.827Z,0
2017-06-24T00:16:35.829Z,0
2017-06-24T00:17:35.829Z,0
2017-06-24T00:18:35.849Z,0
2017-06-24T00:19:35.805Z,0
2017-06-24T00:20:35.811Z,0
2017-06-24T00:21:35.812Z,0
2017-06-24T00:22:35.812Z,0
2017-06-24T00:23:35.766Z,0
2017-06-24T00:24:35.760Z,0
2017-06-24T00:25:35.841Z,0
2017-06-24T00:26:35.770Z,0
2017-06-24T00:27:35.766Z,0
2017-06-24T00:28:35.784Z,0
2017-06-24T00:29:35.766Z,0
2017-06-24T00:30:35.761Z,0
2017-06-24T00:31:35.861Z,0
2017-06-24T00:32:35.856Z,0
2017-06-24T00:33:35.852Z,0
2017-06-24T00:34:35.863Z,0
2017-06-24T00:35:35.826Z,0
2017-06-24T00:36:35.849Z,0
2017-06-24T00:37:35.842Z,0
2017-06-24T00:38:35.944Z,0
2017-06-24T00:39:35.838Z,0
2017-06-24T00:40:35.842Z,0
2017-06-24T00:41:35.840Z,0
2017-06-24T00:42:35.842Z,0
2017-06-24T00:43:35.839Z,0
2017-06-24T00:44:35.842Z,0
2017-06-24T00:45:35.840Z,0
2017-06-24T00:46:35.842Z,0
2017-06-24T00:47:35.845Z,0
2017-06-24T00:48:35.848Z,0
2017-06-24T00:49:35.846Z,0
2017-06-24T00:50:35.848Z,0
2017-06-24T00:51:35.847Z,0
2017-06-24T00:52:35.852Z,0
2017-06-24T00:53:35.849Z,0
2017-06-24T00:54:35.934Z,0
2017-06-24T00:55:35.843Z,0
2017-06-24T00:56:35.769Z,0
2017-06-24T00:57:35.834Z,0
2017-06-24T00:58:35.837Z,0
2017-06-24T00:59:35.836Z,0
2017-06-24T01:00:35.836Z,0
2017-06-24T01:01:35.839Z,0
2017-06-24T01:02:35.840Z,0
2017-06-24T01:03:35.840Z,0
2017-06-24T01:04:35.844Z,0
2017-06-24T01:05:35.941Z,0
2017-06-24T01:06:35.840Z,0
2017-06-24T01:07:35.867Z,0
2017-06-24T01:08:35.879Z,0
2017-06-24T01:09:35.841Z,0
2017-06-24T01:10:35.874Z,0
2017-06-24T01:11:35.791Z,0
2017-06-24T01:12:35.867Z,0
2017-06-24T01:13:35.795Z,0
2017-06-24T01:14:35.875Z,0
2017-06-24T01:15:35.788Z,0
2017-06-24T01:16:35.796Z,0
2017-06-24T01:17:35.856Z,0
2017-06-24T01:18:35.858Z,0
2017-06-24T01:19:35.867Z,0
2017-06-24T01:20:35.860Z,0
2017-06-24T01:21:35.862Z,0
2017-06-24T01:22:35.873Z,0
2017-06-24T01:23:35.876Z,0
2017-06-24T01:24:35.864Z,0
2017-06-24T01:25:35.866Z,0
2017-06-24T01:26:35.865Z,0
2017-06-24T01:27:35.866Z,0
2017-06-24T01:28:35.867Z,0
2017-06-24T01:29:35.868Z,0
2017-06-24T01:30:35.817Z,0
2017-06-24T01:31:35.867Z,0
2017-06-24T01:32:35.883Z,0
2017-06-24T01:33:35.869Z,0
2017-06-24T01:34:35.871Z,0
2017-06-24T01:35:35.874Z,0
2017-06-24T01:36:35.871Z,0
2017-06-24T01:37:35.898Z,0
2017-06-24T01:38:35.888Z,0
2017-06-24T01:39:35.944Z,0
2017-06-24T01:40:35.897Z,0
2017-06-24T01:41:35.824Z,0
2017-06-24T01:42:35.888Z,0
2017-06-24T01:43:35.904Z,0
2017-06-24T01:44:35.892Z,0
2017-06-24T01:45:35.890Z,0
2017-06-24T01:46:35.857Z,0
2017-06-24T01:47:35.900Z,0
2017-06-24T01:48:35.816Z,0
2017-06-24T01:50:35.830Z,0
2017-06-24T01:51:35.861Z,0
2017-06-24T01:52:35.895Z,0
2017-06-24T01:53:35.906Z,0
2017-06-24T01:54:35.813Z,0
2017-06-24T01:55:35.896Z,0
2017-06-24T01:56:35.892Z,0
2017-06-24T01:57:35.819Z,0
2017-06-24T01:58:35.821Z,0
2017-06-24T01:59:35.813Z,0
2017-06-24T02:00:35.904Z,0
2017-06-24T02:01:35.816Z,0
2017-06-24T02:02:36.068Z,0
2017-06-24T02:03:35.908Z,0
2017-06-24T02:04:35.868Z,0
2017-06-24T02:05:35.905Z,0
2017-06-24T02:06:35.814Z,0
2017-06-24T02:07:35.905Z,0
2017-06-24T02:08:35.919Z,0
2017-06-24T02:09:35.890Z,0
2017-06-24T02:10:35.886Z,0
2017-06-24T02:11:35.890Z,0
2017-06-24T02:12:35.889Z,0
2017-06-24T02:13:35.893Z,0
2017-06-24T02:14:35.889Z,0
2017-06-24T02:15:35.892Z,4
2017-06-24T02:16:35.893Z,4
2017-06-24T02:17:35.890Z,4
2017-06-24T02:18:35.929Z,4
2017-06-24T02:19:35.906Z,4
2017-06-24T02:20:35.911Z,0
2017-06-24T02:21:35.844Z,4
2017-06-24T02:22:35.895Z,4
2017-06-24T02:23:35.906Z,4
2017-06-24T02:24:35.914Z,4
2017-06-24T02:25:35.913Z,8
2017-06-24T02:26:35.884Z,4
2017-06-24T02:27:35.919Z,8
2017-06-24T02:28:35.897Z,8
2017-06-24T02:29:35.901Z,8
2017-06-24T02:30:35.982Z,12
2017-06-24T02:31:35.900Z,16
2017-06-24T02:32:35.900Z,20
2017-06-24T02:33:35.905Z,20
2017-06-24T02:34:35.941Z,20
2017-06-24T02:35:35.906Z,24
2017-06-24T02:36:35.903Z,28
2017-06-24T02:37:35.838Z,28
2017-06-24T02:38:35.844Z,36
2017-06-24T02:39:35.918Z,40
2017-06-24T02:40:35.927Z,44
2017-06-24T02:41:35.931Z,52
2017-06-24T02:42:35.924Z,56
2017-06-24T02:43:35.846Z,68
2017-06-24T02:44:35.938Z,76
2017-06-24T02:45:35.895Z,84
2017-06-24T02:46:35.926Z,92
2017-06-24T02:47:35.913Z,104
2017-06-24T02:48:35.900Z,116
2017-06-24T02:49:35.897Z,132
2017-06-24T02:50:35.900Z,148
2017-06-24T02:51:35.902Z,168
2017-06-24T02:52:35.898Z,184
2017-06-24T02:53:35.899Z,200
2017-06-24T02:54:35.902Z,216
2017-06-24T02:55:35.903Z,236
2017-06-24T02:56:35.902Z,264
2017-06-24T02:57:35.898Z,280
2017-06-24T02:58:35.919Z,300
2017-06-24T02:59:35.918Z,324
2017-06-24T03:00:35.837Z,348
2017-06-24T03:01:35.922Z,380
2017-06-24T03:02:35.918Z,416
2017-06-24T03:03:35.921Z,456
2017-06-24T03:04:35.918Z,496
2017-06-24T03:05:35.919Z,536
2017-06-24T03:06:35.918Z,580
2017-06-24T03:07:35.921Z,628
2017-06-24T03:08:35.908Z,672
2017-06-24T03:09:35.908Z,724
2017-06-24T03:10:35.912Z,776
2017-06-24T03:11:35.911Z,824
2017-06-24T03:12:35.911Z,880
2017-06-24T03:13:35.910Z,940
2017-06-24T03:14:35.999Z,1000
2017-06-24T03:15:35.917Z,1060
2017-06-24T03:16:35.913Z,1116
2017-06-24T03:17:35.911Z,1180
2017-06-24T03:18:35.951Z,1248
2017-06-24T03:19:35.929Z,1312
2017-06-24T03:20:35.943Z,1376
2017-06-24T03:21:35.907Z,1444
2017-06-24T03:22:35.935Z,1516
2017-06-24T03:23:35.959Z,1592
2017-06-24T03:24:35.862Z,1668
2017-06-24T03:25:35.910Z,1744
2017-06-24T03:26:35.871Z,1820
2017-06-24T03:27:35.943Z,1896
2017-06-24T03:28:35.936Z,1976
2017-06-24T03:29:35.933Z,2052
2017-06-24T03:30:35.934Z,2128
2017-06-24T03:31:35.936Z,2200
2017-06-24T03:32:35.942Z,2272
2017-06-24T03:33:35.935Z,2340
2017-06-24T03:34:35.937Z,2416
2017-06-24T03:35:35.932Z,2492
2017-06-24T03:36:35.934Z,2572
2017-06-24T03:37:35.939Z,2648
2017-06-24T03:38:35.944Z,2728
2017-06-24T03:39:35.953Z,2812
2017-06-24T03:40:35.868Z,2892
2017-06-24T03:41:35.938Z,2992
2017-06-24T03:42:35.959Z,3128
2017-06-24T03:43:35.879Z,3380
2017-06-24T03:44:35.957Z,3720
2017-06-24T03:45:35.918Z,4028
2017-06-24T03:46:35.955Z,4264
2017-06-24T03:47:35.879Z,4348
2017-06-24T03:48:35.936Z,4332
2017-06-24T03:49:35.959Z,4336
2017-06-24T03:50:35.879Z,4360
2017-06-24T03:51:35.951Z,4288
2017-06-24T03:52:35.878Z,4272
2017-06-24T03:53:35.967Z,4192
2017-06-24T03:54:35.945Z,4148
2017-06-24T03:55:35.966Z,4136
2017-06-24T03:56:35.956Z,4296
2017-06-24T03:57:35.884Z,4724
2017-06-24T03:58:35.965Z,5200
2017-06-24T03:59:35.948Z,5472
2017-06-24T04:00:35.941Z,5724
2017-06-24T04:01:35.971Z,5864
2017-06-24T04:02:35.965Z,5976
2017-06-24T04:03:35.972Z,6024
2017-06-24T04:04:35.945Z,6120
2017-06-24T04:05:35.943Z,6244
2017-06-24T04:06:35.962Z,6336
2017-06-24T04:07:35.971Z,6500
2017-06-24T04:08:35.963Z,6852
2017-06-24T04:09:35.969Z,7004
2017-06-24T04:10:35.880Z,7256
2017-06-24T04:11:35.948Z,7224
2017-06-24T04:12:35.945Z,7540
2017-06-24T04:13:35.967Z,7728
2017-06-24T04:14:35.956Z,7468
2017-06-24T04:15:35.934Z,7556
2017-06-24T04:16:35.894Z,7600
2017-06-24T04:17:35.982Z,7948
2017-06-24T04:18:35.951Z,8332
2017-06-24T04:19:35.948Z,7484
2017-06-24T04:20:36.049Z,6980
2017-06-24T04:21:35.951Z,7308
2017-06-24T04:22:35.979Z,7980
2017-06-24T04:23:35.950Z,8344
2017-06-24T04:24:35.951Z,8756
2017-06-24T04:25:35.952Z,8860
2017-06-24T04:26:35.949Z,8660
2017-06-24T04:27:35.952Z,8652
2017-06-24T04:28:35.981Z,9024
2017-06-24T04:29:35.917Z,9480
2017-06-24T04:30:35.989Z,10060
2017-06-24T04:31:35.942Z,10360
2017-06-24T04:32:35.983Z,10224
2017-06-24T04:33:35.949Z,10432
2017-06-24T04:34:35.908Z,10900
2017-06-24T04:35:35.991Z,11572
2017-06-24T04:36:35.987Z,11936
2017-06-24T04:37:35.987Z,12196
2017-06-24T04:38:35.899Z,12112
2017-06-24T04:39:35.962Z,13116
2017-06-24T04:40:35.904Z,14320
2017-06-24T04:41:35.907Z,14768
2017-06-24T04:42:35.966Z,14580
2017-06-24T04:43:35.903Z,14020
2017-06-24T04:44:35.994Z,14108
2017-06-24T04:45:35.971Z,13664
2017-06-24T04:46:35.996Z,13780
2017-06-24T04:47:35.902Z,13664
2017-06-24T04:48:35.951Z,14052
2017-06-24T04:49:35.963Z,14420
2017-06-24T04:50:35.947Z,14200
2017-06-24T04:51:35.990Z,13664
2017-06-24T04:52:35.910Z,13260
2017-06-24T04:53:36.048Z,13112
2017-06-24T04:54:35.913Z,12824
2017-06-24T04:55:35.978Z,12756
2017-06-24T04:56:35.920Z,12860
2017-06-24T04:57:35.907Z,12968
2017-06-24T04:58:35.917Z,12896
2017-06-24T04:59:35.913Z,12940
2017-06-24T05:00:35.906Z,13196
2017-06-24T05:01:35.911Z,13476
2017-06-24T05:02:36.014Z,13932
2017-06-24T05:03:35.912Z,14676
2017-06-24T05:04:35.913Z,15176
2017-06-24T05:05:35.993Z,15300
2017-06-24T05:06:35.981Z,15944
2017-06-24T05:07:36.004Z,17136
2017-06-24T05:08:36.056Z,17528
2017-06-24T05:09:35.918Z,16380
2017-06-24T05:10:36.059Z,16172
2017-06-24T05:11:35.966Z,15796
2017-06-24T05:12:35.961Z,15560
2017-06-24T05:13:35.967Z,15356
2017-06-24T05:14:35.968Z,14564
2017-06-24T05:15:36.010Z,14192
2017-06-24T05:16:36.008Z,13888
2017-06-24T05:17:36.008Z,14080
2017-06-24T05:18:36.011Z,14980
2017-06-24T05:19:35.932Z,15356
2017-06-24T05:20:36.010Z,14028
2017-06-24T05:21:36.009Z,13808
2017-06-24T05:22:35.988Z,13972
2017-06-24T05:23:36.017Z,14308
2017-06-24T05:24:36.011Z,15148
2017-06-24T05:25:35.974Z,16284
2017-06-24T05:26:35.936Z,17108
2017-06-24T05:27:36.024Z,18636
2017-06-24T05:28:35.935Z,22336
2017-06-24T05:29:35.990Z,24672
2017-06-24T05:30:35.985Z,23840
2017-06-24T05:31:35.987Z,24064
2017-06-24T05:32:35.988Z,26112
2017-06-24T05:33:35.985Z,28160
2017-06-24T05:34:35.988Z,29760
2017-06-24T05:35:35.989Z,27808
2017-06-24T05:36:35.987Z,27296
2017-06-24T05:37:35.986Z,31616
2017-06-24T05:38:35.990Z,33344
2017-06-24T05:39:36.023Z,33088
2017-06-24T05:40:36.018Z,33792
2017-06-24T05:41:36.035Z,31712
2017-06-24T05:42:35.982Z,29344
2017-06-24T05:43:35.984Z,28544
2017-06-24T05:44:36.024Z,28896
2017-06-24T05:45:35.987Z,29696
2017-06-24T05:46:35.947Z,31392
2017-06-24T05:47:35.939Z,32096
2017-06-24T05:48:36.025Z,29920
2017-06-24T05:49:36.025Z,29280
2017-06-24T05:50:36.024Z,29600
2017-06-24T05:51:36.022Z,31744
2017-06-24T05:52:35.943Z,30496
2017-06-24T05:53:35.952Z,29568
2017-06-24T05:54:36.007Z,31104
2017-06-24T05:55:35.937Z,32192
2017-06-24T05:56:36.029Z,33856
2017-06-24T05:57:36.036Z,33184
2017-06-24T05:58:35.937Z,33184
2017-06-24T05:59:36.020Z,35744
2017-06-24T06:00:36.015Z,34720
2017-06-24T06:01:36.017Z,33184
2017-06-24T06:02:36.018Z,33120
2017-06-24T06:03:36.021Z,36256
2017-06-24T06:04:36.027Z,35456
2017-06-24T06:05:36.019Z,35104
2017-06-24T06:06:36.128Z,36928
2017-06-24T06:07:36.021Z,35328
2017-06-24T06:08:36.021Z,31552
2017-06-24T06:09:36.008Z,28320
2017-06-24T06:10:36.008Z,28992
2017-06-24T06:11:36.009Z,27520
2017-06-24T06:12:36.011Z,26656
2017-06-24T06:13:36.023Z,30336
2017-06-24T06:14:36.010Z,31744
2017-06-24T06:15:36.015Z,31168
2017-06-24T06:16:36.109Z,29184
2017-06-24T06:17:36.016Z,29728
2017-06-24T06:18:36.010Z,32384
2017-06-24T06:19:35.960Z,34112
2017-06-24T06:20:36.050Z,30880
2017-06-24T06:21:36.022Z,29760
2017-06-24T06:22:36.038Z,30560
2017-06-24T06:23:36.055Z,31136
2017-06-24T06:24:35.958Z,31072
2017-06-24T06:25:35.967Z,29568
2017-06-24T06:26:36.046Z,26976
2017-06-24T06:27:35.968Z,26208
2017-06-24T06:28:35.962Z,27328
2017-06-24T06:29:36.009Z,28800
2017-06-24T06:30:36.013Z,26784
2017-06-24T06:31:36.052Z,26208
2017-06-24T06:32:35.973Z,27168
2017-06-24T06:33:35.972Z,26144
2017-06-24T06:34:36.052Z,25184
2017-06-24T06:35:36.056Z,24576
2017-06-24T06:36:35.961Z,23776
2017-06-24T06:37:36.055Z,22848
2017-06-24T06:38:36.051Z,23520
2017-06-24T06:39:35.972Z,24032
2017-06-24T06:40:36.032Z,22656
2017-06-24T06:41:35.974Z,21472
2017-06-24T06:42:36.030Z,22528
2017-06-24T06:43:36.055Z,24032
2017-06-24T06:44:35.977Z,24096
2017-06-24T06:45:35.970Z,23808
2017-06-24T06:46:36.067Z,23904
2017-06-24T06:47:36.000Z,25056
2017-06-24T06:48:35.974Z,26240
2017-06-24T06:49:36.028Z,26656
2017-06-24T06:50:36.028Z,26048
2017-06-24T06:51:36.031Z,25280
2017-06-24T06:52:36.028Z,24672
2017-06-24T06:53:36.030Z,25024
2017-06-24T06:54:36.030Z,25248
2017-06-24T06:55:36.033Z,24544
2017-06-24T06:56:36.035Z,24448
2017-06-24T06:57:36.031Z,24512
2017-06-24T06:58:36.034Z,24320
2017-06-24T06:59:35.982Z,25376
2017-06-24T07:00:36.070Z,26624
2017-06-24T07:01:36.078Z,27040
2017-06-24T07:02:36.024Z,28256
2017-06-24T07:03:36.060Z,27008
2017-06-24T07:04:35.981Z,25376
2017-06-24T07:05:36.009Z,26432
2017-06-24T07:06:35.990Z,28064
2017-06-24T07:07:36.012Z,27680
2017-06-24T07:08:36.071Z,26368
2017-06-24T07:09:36.049Z,26944
2017-06-24T07:10:36.055Z,27808
2017-06-24T07:11:36.048Z,30304
2017-06-24T07:12:36.143Z,31584
2017-06-24T07:13:36.051Z,32000
2017-06-24T07:14:35.968Z,32800
2017-06-24T07:15:36.054Z,33280
2017-06-24T07:16:36.056Z,34208
2017-06-24T07:17:36.054Z,33664
2017-06-24T07:18:36.051Z,34560
2017-06-24T07:19:36.055Z,37440
2017-06-24T07:20:36.053Z,38336
2017-06-24T07:21:36.059Z,37312
2017-06-24T07:22:36.058Z,35328
2017-06-24T07:23:36.053Z,36480
2017-06-24T07:24:36.060Z,39424
2017-06-24T07:25:36.059Z,39200
2017-06-24T07:26:36.061Z,37408
2017-06-24T07:27:36.061Z,36928
2017-06-24T07:28:36.061Z,36864
2017-06-24T07:29:35.992Z,36096
2017-06-24T07:30:36.091Z,33632
2017-06-24T07:31:36.085Z,31744
2017-06-24T07:32:35.999Z,30048
2017-06-24T07:33:36.084Z,29472
2017-06-24T07:34:36.084Z,30944
2017-06-24T07:35:35.992Z,33664
2017-06-24T07:36:36.095Z,33536
2017-06-24T07:37:35.998Z,30688
2017-06-24T07:38:36.066Z,27264
2017-06-24T07:39:35.966Z,28704
2017-06-24T07:40:36.001Z,32768
2017-06-24T07:41:36.040Z,34336
2017-06-24T07:42:36.034Z,42592
2017-06-24T07:43:35.996Z,34720
2017-06-24T07:44:36.097Z,35712
2017-06-24T07:45:35.987Z,36896
2017-06-24T07:46:35.998Z,36768
2017-06-24T07:47:35.990Z,34432
2017-06-24T07:48:36.046Z,32256
2017-06-24T07:49:36.102Z,31520
2017-06-24T07:50:36.101Z,34368
2017-06-24T07:51:36.090Z,38784
2017-06-24T07:52:36.099Z,40832
2017-06-24T07:53:36.084Z,40864
2017-06-24T07:54:36.093Z,38016
2017-06-24T07:55:36.052Z,37248
2017-06-24T07:56:36.056Z,37152
2017-06-24T07:57:36.097Z,35648
2017-06-24T07:58:36.102Z,34240
2017-06-24T07:59:36.009Z,34144
2017-06-24T08:00:36.055Z,34560
2017-06-24T08:01:36.091Z,35296
2017-06-24T08:02:36.100Z,36992
2017-06-24T08:03:36.061Z,38816
2017-06-24T08:04:36.015Z,41216
2017-06-24T08:05:36.014Z,41536
2017-06-24T08:06:36.106Z,44832
2017-06-24T08:07:36.063Z,47712
2017-06-24T08:08:36.019Z,46912
2017-06-24T08:09:36.115Z,40928
2017-06-24T08:10:36.104Z,41312
2017-06-24T08:11:36.106Z,43808
2017-06-24T08:12:36.083Z,47168
2017-06-24T08:13:36.093Z,52000
2017-06-24T08:14:36.098Z,113696
2017-06-24T08:15:36.103Z,49984
2017-06-24T08:16:36.098Z,50336
2017-06-24T08:17:36.111Z,55200
2017-06-24T08:18:36.106Z,138560
2017-06-24T08:19:36.092Z,57312
2017-06-24T08:20:36.093Z,52768
2017-06-24T08:21:36.102Z,59840
2017-06-24T08:22:36.106Z,44128
2017-06-24T08:23:36.092Z,39776
2017-06-24T08:24:36.095Z,36800
2017-06-24T08:25:36.097Z,35840
2017-06-24T08:26:36.096Z,38880
2017-06-24T08:27:36.097Z,45056
2017-06-24T08:28:36.097Z,52448
2017-06-24T08:29:36.116Z,79040
2017-06-24T08:30:36.034Z,55296
2017-06-24T08:31:36.099Z,44384
2017-06-24T08:32:36.098Z,45024
2017-06-24T08:33:36.121Z,46016
2017-06-24T08:34:36.121Z,44608
2017-06-24T08:35:36.128Z,42592
2017-06-24T08:36:36.028Z,41696
2017-06-24T08:37:36.034Z,40896
2017-06-24T08:38:36.127Z,39936
2017-06-24T08:39:36.122Z,37952
2017-06-24T08:40:36.041Z,38720
2017-06-24T08:41:36.132Z,43072
2017-06-24T08:42:36.029Z,49728
2017-06-24T08:43:36.041Z,47552
2017-06-24T08:44:36.118Z,43456
2017-06-24T08:45:36.125Z,42912
2017-06-24T08:46:36.031Z,42048
2017-06-24T08:47:36.132Z,40576
2017-06-24T08:48:36.125Z,39456
2017-06-24T08:49:36.109Z,39104
2017-06-24T08:50:36.108Z,37664
2017-06-24T08:51:36.109Z,35488
2017-06-24T08:52:36.111Z,34368
2017-06-24T08:53:36.108Z,33536
2017-06-24T08:54:36.114Z,31712
2017-06-24T08:55:36.108Z,31680
2017-06-24T08:56:36.104Z,33504
2017-06-24T08:57:36.114Z,34528
2017-06-24T08:58:36.111Z,33440
2017-06-24T08:59:36.115Z,32608
2017-06-24T09:00:36.089Z,32736
2017-06-24T09:01:36.131Z,34464
2017-06-24T09:02:36.108Z,38336
2017-06-24T09:03:36.053Z,41600
2017-06-24T09:04:36.045Z,41696
2017-06-24T09:05:36.114Z,41600
2017-06-24T09:06:36.052Z,42560
2017-06-24T09:07:36.046Z,45984
2017-06-24T09:08:36.087Z,48608
2017-06-24T09:09:36.144Z,50912
2017-06-24T09:10:36.117Z,54976
2017-06-24T09:11:36.117Z,56640
2017-06-24T09:12:36.115Z,56128
2017-06-24T09:13:36.117Z,50976
2017-06-24T09:14:36.121Z,48608
2017-06-24T09:15:36.118Z,46976
2017-06-24T09:16:36.149Z,45504
2017-06-24T09:17:36.120Z,43904
2017-06-24T09:18:36.122Z,41888
2017-06-24T09:19:36.119Z,38464
2017-06-24T09:20:36.111Z,36192
2017-06-24T09:21:36.114Z,38048
2017-06-24T09:22:36.111Z,44160
2017-06-24T09:23:36.115Z,55680
2017-06-24T09:24:36.113Z,75648
2017-06-24T09:25:36.115Z,151872
2017-06-24T09:26:36.117Z,67584
2017-06-24T09:27:36.119Z,63680
2017-06-24T09:28:36.117Z,62240
2017-06-24T09:29:36.120Z,60480
2017-06-24T09:30:36.155Z,60928
2017-06-24T09:31:36.056Z,64864
2017-06-24T09:32:36.153Z,71072
2017-06-24T09:33:36.063Z,61472
2017-06-24T09:34:36.057Z,85920
2017-06-24T09:35:36.110Z,77216
2017-06-24T09:36:36.152Z,102592
2017-06-24T09:37:36.113Z,163392
2017-06-24T09:38:36.149Z,88800
2017-06-24T09:39:36.134Z,68864
2017-06-24T09:40:36.121Z,62880
2017-06-24T09:41:36.127Z,62784
2017-06-24T09:42:36.125Z,65056
2017-06-24T09:43:36.128Z,66144
2017-06-24T09:44:36.126Z,68448
2017-06-24T09:45:36.126Z,67936
2017-06-24T09:46:36.126Z,56352
2017-06-24T09:47:36.125Z,55232
2017-06-24T09:48:36.125Z,54112
2017-06-24T09:49:36.128Z,54528
2017-06-24T09:50:36.160Z,54176
2017-06-24T09:51:36.153Z,52640
2017-06-24T09:52:36.075Z,50432
2017-06-24T09:53:36.155Z,53184
2017-06-24T09:54:36.163Z,55872
2017-06-24T09:55:36.160Z,53568
2017-06-24T09:56:36.125Z,53792
2017-06-24T09:57:36.077Z,54624
2017-06-24T09:58:36.155Z,57696
2017-06-24T09:59:36.159Z,55328
2017-06-24T10:00:36.163Z,54400
2017-06-24T10:01:36.146Z,52512
2017-06-24T10:02:36.148Z,53184
2017-06-24T10:03:36.149Z,52480
2017-06-24T10:04:36.148Z,53216
2017-06-24T10:05:36.149Z,53792
2017-06-24T10:06:36.167Z,55264
2017-06-24T10:07:36.144Z,57792
2017-06-24T10:08:36.147Z,58976
2017-06-24T10:09:36.147Z,59968
2017-06-24T10:10:36.086Z,61984
2017-06-24T10:11:36.170Z,63456
2017-06-24T10:12:36.074Z,62944
2017-06-24T10:13:36.091Z,63136
2017-06-24T10:14:36.168Z,62880
2017-06-24T10:15:36.141Z,60480
2017-06-24T10:16:36.080Z,54304
2017-06-24T10:17:36.175Z,50144
2017-06-24T10:18:36.168Z,47488
2017-06-24T10:19:36.178Z,45824
2017-06-24T10:20:36.175Z,44704
2017-06-24T10:21:36.176Z,41920
2017-06-24T10:22:36.092Z,39168
2017-06-24T10:23:36.178Z,40608
2017-06-24T10:24:36.170Z,41184
2017-06-24T10:25:36.096Z,40960
2017-06-24T10:26:36.094Z,40960
2017-06-24T10:27:36.178Z,42944
2017-06-24T10:28:36.089Z,46816
2017-06-24T10:29:36.146Z,49952
2017-06-24T10:30:36.166Z,50944
2017-06-24T10:31:36.162Z,49792
2017-06-24T10:32:36.162Z,48352
2017-06-24T10:33:36.166Z,46880
2017-06-24T10:34:36.164Z,45472
2017-06-24T10:35:36.169Z,46368
2017-06-24T10:36:36.176Z,50816
2017-06-24T10:37:36.153Z,56832
2017-06-24T10:38:36.165Z,61600
2017-06-24T10:39:36.252Z,70400
2017-06-24T10:40:36.154Z,83008
2017-06-24T10:41:36.159Z,82272
2017-06-24T10:42:36.160Z,79520
2017-06-24T10:43:36.185Z,77728
2017-06-24T10:44:36.159Z,75680
2017-06-24T10:45:36.161Z,79072
2017-06-24T10:46:36.162Z,84352
2017-06-24T10:47:36.163Z,78944
2017-06-24T10:48:36.162Z,73760
2017-06-24T10:49:36.165Z,72704
2017-06-24T10:50:36.195Z,79744
2017-06-24T10:51:36.190Z,81312
2017-06-24T10:52:36.257Z,75328
2017-06-24T10:53:36.196Z,67616
2017-06-24T10:54:36.198Z,63264
2017-06-24T10:55:36.199Z,64800
2017-06-24T10:56:36.203Z,71392
2017-06-24T10:57:36.196Z,76352
2017-06-24T10:58:36.116Z,72320
2017-06-24T10:59:36.177Z,65568
2017-06-24T11:00:36.113Z,60288
2017-06-24T11:01:36.113Z,56288
2017-06-24T11:02:36.251Z,54144
2017-06-24T11:03:36.207Z,54304
2017-06-24T11:04:36.200Z,54784
2017-06-24T11:05:36.180Z,54336
2017-06-24T11:06:36.119Z,54208
2017-06-24T11:07:36.117Z,55264
2017-06-24T11:08:36.162Z,56320
2017-06-24T11:09:36.219Z,57568
2017-06-24T11:10:36.190Z,58144
2017-06-24T11:11:36.188Z,56128
2017-06-24T11:12:36.203Z,53024
2017-06-24T11:13:36.189Z,51872
2017-06-24T11:14:36.184Z,51232
2017-06-24T11:15:36.189Z,49472
2017-06-24T11:16:36.188Z,49120
2017-06-24T11:17:36.186Z,49696
2017-06-24T11:18:36.189Z,49088
2017-06-24T11:19:36.189Z,49024
2017-06-24T11:20:36.129Z,49120
2017-06-24T11:21:36.183Z,48736
2017-06-24T11:22:36.173Z,48000
2017-06-24T11:23:36.136Z,47584
2017-06-24T11:24:36.132Z,46400
2017-06-24T11:25:36.134Z,45088
2017-06-24T11:26:36.138Z,42976
2017-06-24T11:27:36.241Z,40736
2017-06-24T11:28:36.130Z,39872
2017-06-24T11:29:36.120Z,40064
2017-06-24T11:30:36.195Z,41536
2017-06-24T11:31:36.197Z,43744
2017-06-24T11:32:36.197Z,45760
2017-06-24T11:33:36.114Z,48224
2017-06-24T11:34:36.199Z,49696
2017-06-24T11:35:36.205Z,49312
2017-06-24T11:36:36.198Z,49856
2017-06-24T11:37:36.202Z,51296
2017-06-24T11:38:36.204Z,54016
2017-06-24T11:39:36.203Z,56160
2017-06-24T11:40:36.203Z,57024
2017-06-24T11:41:36.202Z,58688
2017-06-24T11:42:36.205Z,60800
2017-06-24T11:43:36.252Z,60896
2017-06-24T11:44:36.202Z,59840
2017-06-24T11:45:36.201Z,61344
2017-06-24T11:46:36.205Z,64512
2017-06-24T11:47:36.211Z,66144
2017-06-24T11:48:36.206Z,66784
2017-06-24T11:49:36.205Z,64768
2017-06-24T11:50:36.195Z,61984
2017-06-24T11:51:36.194Z,61792
2017-06-24T11:52:36.194Z,65312
2017-06-24T11:53:36.196Z,69312
2017-06-24T11:54:36.196Z,66496
2017-06-24T11:55:36.199Z,61024
2017-06-24T11:56:36.195Z,56864
2017-06-24T11:57:36.197Z,54464
2017-06-24T11:58:36.201Z,54080
2017-06-24T11:59:36.201Z,54720
2017-06-24T12:00:36.217Z,52864
2017-06-24T12:01:36.216Z,50656
2017-06-24T12:02:36.217Z,47904
2017-06-24T12:03:36.219Z,44832
2017-06-24T12:04:36.217Z,43552
2017-06-24T12:05:36.216Z,43872
2017-06-24T12:06:36.218Z,44960
2017-06-24T12:07:36.224Z,46464
2017-06-24T12:08:36.217Z,48512
2017-06-24T12:09:36.219Z,50496
2017-06-24T12:10:36.236Z,51584
2017-06-24T12:11:36.220Z,49888
2017-06-24T12:12:36.218Z,48736
2017-06-24T12:13:36.219Z,49248
2017-06-24T12:14:36.220Z,50752
2017-06-24T12:15:36.223Z,51392
2017-06-24T12:16:36.221Z,51392
2017-06-24T12:17:36.219Z,52224
2017-06-24T12:18:36.225Z,54400
2017-06-24T12:19:36.224Z,57536
2017-06-24T12:20:36.240Z,58656
2017-06-24T12:21:36.164Z,58720
2017-06-24T12:22:36.247Z,60384
2017-06-24T12:23:36.239Z,62144
2017-06-24T12:24:36.167Z,61408
2017-06-24T12:25:36.240Z,60256
2017-06-24T12:26:36.246Z,58432
2017-06-24T12:27:36.204Z,54432
2017-06-24T12:28:36.168Z,52032
2017-06-24T12:29:36.169Z,51744
2017-06-24T12:30:36.227Z,52544
2017-06-24T12:31:36.234Z,54464
2017-06-24T12:32:36.229Z,56992
2017-06-24T12:33:36.312Z,58016
2017-06-24T12:34:36.234Z,58848
2017-06-24T12:35:36.234Z,58048
2017-06-24T12:36:36.231Z,56704
2017-06-24T12:37:36.233Z,55040
2017-06-24T12:38:36.231Z,51776
2017-06-24T12:39:36.232Z,47776
2017-06-24T12:40:36.192Z,45792
2017-06-24T12:41:36.194Z,44384
2017-06-24T12:42:36.215Z,43264
2017-06-24T12:43:36.159Z,41920
2017-06-24T12:44:36.145Z,40608
2017-06-24T12:45:36.300Z,41408
2017-06-24T12:46:36.205Z,41792
2017-06-24T12:47:36.195Z,40640
2017-06-24T12:48:36.213Z,40512
2017-06-24T12:49:36.266Z,42368
2017-06-24T12:50:36.239Z,44768
2017-06-24T12:51:36.245Z,46176
2017-06-24T12:52:36.326Z,46336
2017-06-24T12:53:36.243Z,45696
2017-06-24T12:54:36.245Z,44512
2017-06-24T12:55:36.245Z,44256
2017-06-24T12:56:36.243Z,45792
2017-06-24T12:57:36.330Z,48960
2017-06-24T12:58:36.246Z,51616
2017-06-24T12:59:36.250Z,53344
2017-06-24T13:00:36.254Z,52928
2017-06-24T13:01:36.266Z,52320
2017-06-24T13:02:36.270Z,53600
2017-06-24T13:03:36.265Z,54656
2017-06-24T13:04:36.264Z,55040
2017-06-24T13:05:36.176Z,57120
2017-06-24T13:06:36.269Z,60480
2017-06-24T13:07:36.261Z,61280
2017-06-24T13:08:36.231Z,66272
2017-06-24T13:09:36.269Z,69888
2017-06-24T13:10:36.229Z,75616
2017-06-24T13:11:36.211Z,77472
2017-06-24T13:12:36.277Z,67520
2017-06-24T13:13:36.186Z,57600
2017-06-24T13:14:36.194Z,51360
2017-06-24T13:15:36.198Z,50400
2017-06-24T13:16:36.194Z,50144
2017-06-24T13:17:36.250Z,51776
2017-06-24T13:18:36.256Z,51200